sensor_id;sensor_type;location;lat;lon;timestamp;P1;P2;P0
55857;PMS7003;41779;52.360;31.026;2024-02-14T00:04:29;15.2;13.8;9.8
55857;PMS7003;41779;52.360;31.026;2024-02-14T00:09:57;13;11;9.2
55857;PMS7003;41779;52.360;31.026;2024-02-14T00:14:49;15.8;12;9
55857;PMS7003;41779;52.360;31.026;2024-02-14T00:19:29;18;11.8;9.6
55857;PMS7003;41779;52.360;31.026;2024-02-14T00:24:29;20.4;13.8;9
55857;PMS7003;41779;52.360;31.026;2024-02-14T00:29:29;26.4;19;13
55857;PMS7003;41779;52.360;31.026;2024-02-14T00:34:57;30.4;25.4;15.4
55857;PMS7003;41779;52.360;31.026;2024-02-14T00:39:43;29.2;22.4;15.4
55857;PMS7003;41779;52.360;31.026;2024-02-14T00:44:57;39;31.4;20
55857;PMS7003;41779;52.360;31.026;2024-02-14T00:49:43;39.3;26.3;17
55857;PMS7003;41779;52.360;31.026;2024-02-14T00:54:43;28.6;22.8;15.2
55857;PMS7003;41779;52.360;31.026;2024-02-14T00:59:27;27.8;23;15.8
55857;PMS7003;41779;52.360;31.026;2024-02-14T01:04:17;30.2;21.2;15.8
55857;PMS7003;41779;52.360;31.026;2024-02-14T01:09:47;48.2;35.4;22
55857;PMS7003;41779;52.360;31.026;2024-02-14T01:14:31;34.6;24.8;16.8
55857;PMS7003;41779;52.360;31.026;2024-02-14T01:19:17;30.6;23.4;15.4
55857;PMS7003;41779;52.360;31.026;2024-02-14T01:24:29;29.4;22.4;14.8
55857;PMS7003;41779;52.360;31.026;2024-02-14T01:29:57;26.8;20.2;13.6
55857;PMS7003;41779;52.360;31.026;2024-02-14T01:34:09;20.4;16;11.6
55857;PMS7003;41779;52.360;31.026;2024-02-14T01:39:49;24.2;18;13.4
55857;PMS7003;41779;52.360;31.026;2024-02-14T01:44:43;20.2;15.8;11
55857;PMS7003;41779;52.360;31.026;2024-02-14T01:49:49;19;15.4;10.2
55857;PMS7003;41779;52.360;31.026;2024-02-14T01:54:30;19;14.5;10.3
55857;PMS7003;41779;52.360;31.026;2024-02-14T01:59:12;20;14.2;10.8
55857;PMS7003;41779;52.360;31.026;2024-02-14T02:04:57;17.8;12.4;9.4
55857;PMS7003;41779;52.360;31.026;2024-02-14T02:09:57;17.4;12.4;8.2
55857;PMS7003;41779;52.360;31.026;2024-02-14T02:14:35;14;11.8;8.6
55857;PMS7003;41779;52.360;31.026;2024-02-14T02:19:57;12.4;8.8;6.2
55857;PMS7003;41779;52.360;31.026;2024-02-14T02:24:57;14.4;9.2;6.6
55857;PMS7003;41779;52.360;31.026;2024-02-14T02:29:43;13.2;9.4;7.2
55857;PMS7003;41779;52.360;31.026;2024-02-14T02:34:10;12.8;9;7
55857;PMS7003;41779;52.360;31.026;2024-02-14T02:39:17;10.6;6.8;5.4
55857;PMS7003;41779;52.360;31.026;2024-02-14T02:44:09;12.4;9.2;6.8
55857;PMS7003;41779;52.360;31.026;2024-02-14T02:49:09;11.6;9.2;6.6
55857;PMS7003;41779;52.360;31.026;2024-02-14T02:54:17;10.8;8;6
55857;PMS7003;41779;52.360;31.026;2024-02-14T02:59:23;9.8;7.8;5.6
55857;PMS7003;41779;52.360;31.026;2024-02-14T03:04:57;12.4;11;7.2
55857;PMS7003;41779;52.360;31.026;2024-02-14T03:09:24;13;9.3;7
55857;PMS7003;41779;52.360;31.026;2024-02-14T03:14:57;11.4;9.6;6.4
55857;PMS7003;41779;52.360;31.026;2024-02-14T03:19:43;13.8;10;7
55857;PMS7003;41779;52.360;31.026;2024-02-14T03:24:49;9;7.6;5.6
55857;PMS7003;41779;52.360;31.026;2024-02-14T03:29:22;10.8;8.8;6.8
55857;PMS7003;41779;52.360;31.026;2024-02-14T03:34:37;11.2;7.4;5.4
55857;PMS7003;41779;52.360;31.026;2024-02-14T03:39:58;15.8;10.2;8
55857;PMS7003;41779;52.360;31.026;2024-02-14T03:44:58;13.2;10.6;7.8
55857;PMS7003;41779;52.360;31.026;2024-02-14T03:49:27;24;18.8;14.2
55857;PMS7003;41779;52.360;31.026;2024-02-14T03:54:58;18.8;13.8;10
55857;PMS7003;41779;52.360;31.026;2024-02-14T03:59:59;14.6;9.8;7.8
55857;PMS7003;41779;52.360;31.026;2024-02-14T04:04:44;15;11.8;8.6
55857;PMS7003;41779;52.360;31.026;2024-02-14T04:09:58;11.8;9.8;7
55857;PMS7003;41779;52.360;31.026;2024-02-14T04:14:10;9.2;8.2;6.6
55857;PMS7003;41779;52.360;31.026;2024-02-14T04:19:10;9.6;6.8;5.6
55857;PMS7003;41779;52.360;31.026;2024-02-14T04:24:22;10;7.2;6
55857;PMS7003;41779;52.360;31.026;2024-02-14T04:29:38;10.6;8.2;6.2
55857;PMS7003;41779;52.360;31.026;2024-02-14T04:34:10;10.8;8.5;6.3
55857;PMS7003;41779;52.360;31.026;2024-02-14T04:39:38;7.6;6.6;5.6
55857;PMS7003;41779;52.360;31.026;2024-02-14T04:44:32;41.2;31.4;19.2
55857;PMS7003;41779;52.360;31.026;2024-02-14T04:49:58;43.6;31.4;21.2
55857;PMS7003;41779;52.360;31.026;2024-02-14T04:54:44;33.8;26.6;19.4
55857;PMS7003;41779;52.360;31.026;2024-02-14T04:59:10;35;26.8;19
55857;PMS7003;41779;52.360;31.026;2024-02-14T05:04:30;34.8;25.8;17.5
55857;PMS7003;41779;52.360;31.026;2024-02-14T05:09:38;28.6;20.6;15.2
55857;PMS7003;41779;52.360;31.026;2024-02-14T05:14:30;25;21;15.4
55857;PMS7003;41779;52.360;31.026;2024-02-14T05:19:10;22;16.8;13.4
55857;PMS7003;41779;52.360;31.026;2024-02-14T05:24:48;19.4;17.6;11.8
55857;PMS7003;41779;52.360;31.026;2024-02-14T05:29:42;18.6;14.2;11.4
55857;PMS7003;41779;52.360;31.026;2024-02-14T05:34:56;17.6;14.4;11.6
55857;PMS7003;41779;52.360;31.026;2024-02-14T05:39:10;17;13.6;10.2
55857;PMS7003;41779;52.360;31.026;2024-02-14T05:44:50;18.8;14;9.8
55857;PMS7003;41779;52.360;31.026;2024-02-14T05:49:36;15.2;12.2;9
55857;PMS7003;41779;52.360;31.026;2024-02-14T05:54:10;10.2;8;6.2
55857;PMS7003;41779;52.360;31.026;2024-02-14T05:59:36;11.2;8.8;6.6
55857;PMS7003;41779;52.360;31.026;2024-02-14T06:04:28;13.8;11.4;8.6
55857;PMS7003;41779;52.360;31.026;2024-02-14T06:09:58;20.3;14.5;11.3
55857;PMS7003;41779;52.360;31.026;2024-02-14T06:14:10;19;14.2;11.4
55857;PMS7003;41779;52.360;31.026;2024-02-14T06:19:44;22.6;14.8;11.6
55857;PMS7003;41779;52.360;31.026;2024-02-14T06:24:58;19.6;14.6;10.6
55857;PMS7003;41779;52.360;31.026;2024-02-14T06:29:58;24.6;18.8;13
55857;PMS7003;41779;52.360;31.026;2024-02-14T06:34:44;30.6;23.2;16.6
55857;PMS7003;41779;52.360;31.026;2024-02-14T06:39:38;22.8;16.6;12.8
55857;PMS7003;41779;52.360;31.026;2024-02-14T06:44:56;20.6;16.6;11.8
55857;PMS7003;41779;52.360;31.026;2024-02-14T06:49:12;17;12.2;9.2
55857;PMS7003;41779;52.360;31.026;2024-02-14T06:54:26;15.8;12.2;8.2
55857;PMS7003;41779;52.360;31.026;2024-02-14T06:59:38;12.4;9;6.8
55857;PMS7003;41779;52.360;31.026;2024-02-14T07:04:44;10;8.2;5.8
55857;PMS7003;41779;52.360;31.026;2024-02-14T07:09:58;9;8.3;5.8
55857;PMS7003;41779;52.360;31.026;2024-02-14T07:14:36;12.4;10.4;8
55857;PMS7003;41779;52.360;31.026;2024-02-14T07:19:50;10.2;8.8;7
55857;PMS7003;41779;52.360;31.026;2024-02-14T07:24:28;13;9.8;7.2
55857;PMS7003;41779;52.360;31.026;2024-02-14T07:29:22;11.8;8.6;7.2
55857;PMS7003;41779;52.360;31.026;2024-02-14T07:34:26;14.4;11;7.4
55857;PMS7003;41779;52.360;31.026;2024-02-14T07:39:18;12.8;8.2;5.8
55857;PMS7003;41779;52.360;31.026;2024-02-14T07:44:36;10.8;8.2;7
55857;PMS7003;41779;52.360;31.026;2024-02-14T07:49:18;15.8;13;9.8
55857;PMS7003;41779;52.360;31.026;2024-02-14T07:54:44;13.6;10.4;8
55857;PMS7003;41779;52.360;31.026;2024-02-14T07:59:58;12.8;9.6;8.2
55857;PMS7003;41779;52.360;31.026;2024-02-14T08:04:52;12.4;10.8;8.4
55857;PMS7003;41779;52.360;31.026;2024-02-14T08:09:24;9.3;6.7;5.3
55857;PMS7003;41779;52.360;31.026;2024-02-14T08:14:38;8;5.4;4.2
55857;PMS7003;41779;52.360;31.026;2024-02-14T08:19:38;7.2;4.6;4
55857;PMS7003;41779;52.360;31.026;2024-02-14T08:24:50;6;4.4;3.4
55857;PMS7003;41779;52.360;31.026;2024-02-14T08:29:30;5.6;4.4;3.8
55857;PMS7003;41779;52.360;31.026;2024-02-14T08:34:26;7.3;5.3;4.5
55857;PMS7003;41779;52.360;31.026;2024-02-14T08:39:10;6.2;4.6;3.8
55857;PMS7003;41779;52.360;31.026;2024-02-14T08:44:58;7.2;5;4.4
55857;PMS7003;41779;52.360;31.026;2024-02-14T08:49:36;9.8;5.4;4.8
55857;PMS7003;41779;52.360;31.026;2024-02-14T08:54:58;11;7.4;5.8
55857;PMS7003;41779;52.360;31.026;2024-02-14T08:59:36;9.8;6.8;5.8
55857;PMS7003;41779;52.360;31.026;2024-02-14T09:04:44;11.5;8.5;7
55857;PMS7003;41779;52.360;31.026;2024-02-14T09:09:18;9.3;5.7;4.7
55857;PMS7003;41779;52.360;31.026;2024-02-14T09:14:10;8.4;7;6
55857;PMS7003;41779;52.360;31.026;2024-02-14T09:19:18;9;6;4.8
55857;PMS7003;41779;52.360;31.026;2024-02-14T09:24:24;10.2;7.8;5.4
55857;PMS7003;41779;52.360;31.026;2024-02-14T09:29:10;9.8;7.2;5.8
55857;PMS7003;41779;52.360;31.026;2024-02-14T09:34:14;13;11;8.8
55857;PMS7003;41779;52.360;31.026;2024-02-14T09:39:58;15.8;11.8;9
55857;PMS7003;41779;52.360;31.026;2024-02-14T09:44:30;14.5;10;7.5
55857;PMS7003;41779;52.360;31.026;2024-02-14T09:49:58;16.8;14.4;10.6
55857;PMS7003;41779;52.360;31.026;2024-02-14T09:54:44;14.6;13;9.8
55857;PMS7003;41779;52.360;31.026;2024-02-14T09:59:50;14.8;11.4;9.2
55857;PMS7003;41779;52.360;31.026;2024-02-14T10:04:30;18;15;10.6
55857;PMS7003;41779;52.360;31.026;2024-02-14T10:09:41;17.8;14.6;10.8
55857;PMS7003;41779;52.360;31.026;2024-02-14T10:14:58;15.2;11.8;8.6
55857;PMS7003;41779;52.360;31.026;2024-02-14T10:19:58;14.6;10.4;7.4
55857;PMS7003;41779;52.360;31.026;2024-02-14T10:24:58;16.4;13.8;10.6
55857;PMS7003;41779;52.360;31.026;2024-02-14T10:29:56;14.6;11.4;8.6
55857;PMS7003;41779;52.360;31.026;2024-02-14T10:34:58;13;11.6;8.6
55857;PMS7003;41779;52.360;31.026;2024-02-14T10:39:44;18;14.6;10.4
55857;PMS7003;41779;52.360;31.026;2024-02-14T10:44:58;16.3;14;10.5
55857;PMS7003;41779;52.360;31.026;2024-02-14T10:49:38;17;12.8;9.4
55857;PMS7003;41779;52.360;31.026;2024-02-14T10:54:10;12;9.4;8
55857;PMS7003;41779;52.360;31.026;2024-02-14T10:59:24;13.6;10.4;8.2
55857;PMS7003;41779;52.360;31.026;2024-02-14T11:04:30;11.4;9.4;7.6
55857;PMS7003;41779;52.360;31.026;2024-02-14T11:09:36;12.4;9.4;7
55857;PMS7003;41779;52.360;31.026;2024-02-14T11:14:38;13.8;9.6;7.4
55857;PMS7003;41779;52.360;31.026;2024-02-14T11:19:10;12.4;9.4;7.4
55857;PMS7003;41779;52.360;31.026;2024-02-14T11:24:27;10.6;8.4;6
55857;PMS7003;41779;52.360;31.026;2024-02-14T11:29:50;12.4;9;6.8
55857;PMS7003;41779;52.360;31.026;2024-02-14T11:34:54;13.4;10.2;7.8
55857;PMS7003;41779;52.360;31.026;2024-02-14T11:39:30;11.6;8.4;6
55857;PMS7003;41779;52.360;31.026;2024-02-14T11:44:40;9.8;8.3;7.3
55857;PMS7003;41779;52.360;31.026;2024-02-14T11:49:58;12.4;9.6;7.6
55857;PMS7003;41779;52.360;31.026;2024-02-14T11:54:58;14;9.4;7.4
55857;PMS7003;41779;52.360;31.026;2024-02-14T11:59:10;12.6;10.6;7.8
55857;PMS7003;41779;52.360;31.026;2024-02-14T12:04:58;13;10.4;8
55857;PMS7003;41779;52.360;31.026;2024-02-14T12:09:58;13.2;10;8
55857;PMS7003;41779;52.360;31.026;2024-02-14T12:14:12;13.6;10.2;8
55857;PMS7003;41779;52.360;31.026;2024-02-14T12:20:04;15.8;13;9.6
55857;PMS7003;41779;52.360;31.026;2024-02-14T12:24:24;15.8;12;8.6
55857;PMS7003;41779;52.360;31.026;2024-02-14T12:29:11;13.8;9.6;7.8
55857;PMS7003;41779;52.360;31.026;2024-02-14T12:34:24;12.8;9.4;6.8
55857;PMS7003;41779;52.360;31.026;2024-02-14T12:39:30;12.2;10;7.4
55857;PMS7003;41779;52.360;31.026;2024-02-14T12:44:18;15;11.6;9.2
55857;PMS7003;41779;52.360;31.026;2024-02-14T12:49:30;18.5;13.3;9.8
55857;PMS7003;41779;52.360;31.026;2024-02-14T12:54:58;14.4;12;9.4
55857;PMS7003;41779;52.360;31.026;2024-02-14T12:59:58;16.8;12.8;9.6
55857;PMS7003;41779;52.360;31.026;2024-02-14T13:04:44;18.4;13.2;9.6
55857;PMS7003;41779;52.360;31.026;2024-02-14T13:09:22;16;11.6;9.2
55857;PMS7003;41779;52.360;31.026;2024-02-14T13:14:18;13.2;10.8;8.2
55857;PMS7003;41779;52.360;31.026;2024-02-14T13:19:12;16;13.2;10.4
55857;PMS7003;41779;52.360;31.026;2024-02-14T13:24:50;16.6;12.4;9.4
55857;PMS7003;41779;52.360;31.026;2024-02-14T13:29:30;15;12.6;9.6
55857;PMS7003;41779;52.360;31.026;2024-02-14T13:34:58;13.6;10.2;8.4
55857;PMS7003;41779;52.360;31.026;2024-02-14T13:39:44;14.2;10;7.6
55857;PMS7003;41779;52.360;31.026;2024-02-14T13:44:58;13;10.8;7.8
55857;PMS7003;41779;52.360;31.026;2024-02-14T13:49:50;13.3;9.3;7
55857;PMS7003;41779;52.360;31.026;2024-02-14T13:54:50;14.8;11.8;8.6
55857;PMS7003;41779;52.360;31.026;2024-02-14T13:59:36;17.6;14.4;10.8
55857;PMS7003;41779;52.360;31.026;2024-02-14T14:04:10;15.4;13.6;10.6
55857;PMS7003;41779;52.360;31.026;2024-02-14T14:09:28;11.4;9.2;7.4
55857;PMS7003;41779;52.360;31.026;2024-02-14T14:14:10;11.2;9.8;6.8
55857;PMS7003;41779;52.360;31.026;2024-02-14T14:19:10;11.6;8.4;6
55857;PMS7003;41779;52.360;31.026;2024-02-14T14:24:24;11.8;9.2;7
55857;PMS7003;41779;52.360;31.026;2024-02-14T14:29:26;12.8;8.4;7
55857;PMS7003;41779;52.360;31.026;2024-02-14T14:34:20;10.6;8.4;6.2
55857;PMS7003;41779;52.360;31.026;2024-02-14T14:39:58;13.6;11.8;8.8
55857;PMS7003;41779;52.360;31.026;2024-02-14T14:44:16;16.8;12.2;10
55857;PMS7003;41779;52.360;31.026;2024-02-14T14:49:36;15.3;11;8.8
55857;PMS7003;41779;52.360;31.026;2024-02-14T14:54:58;13;10.2;8.6
55857;PMS7003;41779;52.360;31.026;2024-02-14T14:59:38;19.6;12.2;9.2
55857;PMS7003;41779;52.360;31.026;2024-02-14T15:04:30;12.6;9.8;8.6
55857;PMS7003;41779;52.360;31.026;2024-02-14T15:09:38;12.4;8.6;7.2
55857;PMS7003;41779;52.360;31.026;2024-02-14T15:14:10;15.4;10.2;8.4
55857;PMS7003;41779;52.360;31.026;2024-02-14T15:19:58;12.8;8.8;7.8
55857;PMS7003;41779;52.360;31.026;2024-02-14T15:24:36;13.3;9.8;8.3
55857;PMS7003;41779;52.360;31.026;2024-02-14T15:29:58;12.2;9;6.8
55857;PMS7003;41779;52.360;31.026;2024-02-14T15:34:18;12;8;6.6
55857;PMS7003;41779;52.360;31.026;2024-02-14T15:39:18;9.2;6.6;6.4
55857;PMS7003;41779;52.360;31.026;2024-02-14T15:44:18;8.6;6.6;5.2
55857;PMS7003;41779;52.360;31.026;2024-02-14T15:49:10;7.2;5.6;5
55857;PMS7003;41779;52.360;31.026;2024-02-14T15:54:10;8;7;5.7
55857;PMS7003;41779;52.360;31.026;2024-02-14T15:59:36;12.4;10.6;7.6
55857;PMS7003;41779;52.360;31.026;2024-02-14T16:04:10;23;15.2;11.2
55857;PMS7003;41779;52.360;31.026;2024-02-14T16:09:24;27;18.8;13.8
55857;PMS7003;41779;52.360;31.026;2024-02-14T16:14:57;20.4;15.8;12.6
55857;PMS7003;41779;52.360;31.026;2024-02-14T16:24:34;17;14.7;10
55857;PMS7003;41779;52.360;31.026;2024-02-14T16:29:42;21.5;14;11
55857;PMS7003;41779;52.360;31.026;2024-02-14T16:34:20;16.4;15.8;11.2
55857;PMS7003;41779;52.360;31.026;2024-02-14T16:39:26;15.8;13.8;10.3
55857;PMS7003;41779;52.360;31.026;2024-02-14T16:44:30;19.2;12.6;10.2
55857;PMS7003;41779;52.360;31.026;2024-02-14T16:49:56;15.2;12;9
55857;PMS7003;41779;52.360;31.026;2024-02-14T16:54:38;13.6;11.6;8.6
55857;PMS7003;41779;52.360;31.026;2024-02-14T16:59:36;15;11.2;8.4
55857;PMS7003;41779;52.360;31.026;2024-02-14T17:04:58;20;15.2;10.4
55857;PMS7003;41779;52.360;31.026;2024-02-14T17:09:32;15.4;13;9
55857;PMS7003;41779;52.360;31.026;2024-02-14T17:14:12;16;10.4;7.8
55857;PMS7003;41779;52.360;31.026;2024-02-14T17:19:56;13.5;9.8;7.3
55857;PMS7003;41779;52.360;31.026;2024-02-14T17:24:36;10.4;8.8;7.2
55857;PMS7003;41779;52.360;31.026;2024-02-14T17:29:10;13;8.2;6.4
55857;PMS7003;41779;52.360;31.026;2024-02-14T17:34:10;12;8.6;7
55857;PMS7003;41779;52.360;31.026;2024-02-14T17:39:16;11.2;7.8;6.2
55857;PMS7003;41779;52.360;31.026;2024-02-14T17:44:10;11;8.8;6.2
55857;PMS7003;41779;52.360;31.026;2024-02-14T17:49:26;8.2;7.4;6
55857;PMS7003;41779;52.360;31.026;2024-02-14T17:54:24;12.2;9.2;6.6
55857;PMS7003;41779;52.360;31.026;2024-02-14T17:59:58;11;9.6;6.8
55857;PMS7003;41779;52.360;31.026;2024-02-14T18:04:44;11.3;8.5;6.3
55857;PMS7003;41779;52.360;31.026;2024-02-14T18:09:24;12.6;9;7.6
55857;PMS7003;41779;52.360;31.026;2024-02-14T18:14:10;13.6;10;7
55857;PMS7003;41779;52.360;31.026;2024-02-14T18:19:36;13.4;9.6;7.8
55857;PMS7003;41779;52.360;31.026;2024-02-14T18:24:48;11.2;10.2;6.4
55857;PMS7003;41779;52.360;31.026;2024-02-14T18:29:11;10.8;10.2;7.4
55857;PMS7003;41779;52.360;31.026;2024-02-14T18:34:48;14;10.5;8.3
55857;PMS7003;41779;52.360;31.026;2024-02-14T18:39:30;19.6;17.2;11
55857;PMS7003;41779;52.360;31.026;2024-02-14T18:44:48;19;15.2;10.2
55857;PMS7003;41779;52.360;31.026;2024-02-14T18:49:16;18.8;11.8;8.6
55857;PMS7003;41779;52.360;31.026;2024-02-14T18:54:38;9.6;8.6;7
55857;PMS7003;41779;52.360;31.026;2024-02-14T18:59:36;10.4;8;6.2
55857;PMS7003;41779;52.360;31.026;2024-02-14T19:04:50;13.5;7.5;6
55857;PMS7003;41779;52.360;31.026;2024-02-14T19:09:36;14;11.2;9
55857;PMS7003;41779;52.360;31.026;2024-02-14T19:14:18;17.8;12;8.8
55857;PMS7003;41779;52.360;31.026;2024-02-14T19:19:10;13.4;8.8;6.4
55857;PMS7003;41779;52.360;31.026;2024-02-14T19:29:12;12;8.6;5.8
55857;PMS7003;41779;52.360;31.026;2024-02-14T19:34:58;11.6;8.2;6.4
55857;PMS7003;41779;52.360;31.026;2024-02-14T19:39:58;9.6;7.8;6.2
55857;PMS7003;41779;52.360;31.026;2024-02-14T19:44:10;9.4;6.8;6
55857;PMS7003;41779;52.360;31.026;2024-02-14T19:49:38;10;8.2;6
55857;PMS7003;41779;52.360;31.026;2024-02-14T19:54:58;9;6.6;5.4
55857;PMS7003;41779;52.360;31.026;2024-02-14T19:59:50;9.2;8.2;6.4
55857;PMS7003;41779;52.360;31.026;2024-02-14T20:04:10;11;8;5.3
55857;PMS7003;41779;52.360;31.026;2024-02-14T20:09:38;10.2;7;5.4
55857;PMS7003;41779;52.360;31.026;2024-02-14T20:14:44;7.3;5.5;4.3
55857;PMS7003;41779;52.360;31.026;2024-02-14T20:19:58;6.2;4.8;4.2
55857;PMS7003;41779;52.360;31.026;2024-02-14T20:24:36;7.8;6.4;5.2
55857;PMS7003;41779;52.360;31.026;2024-02-14T20:29:20;7.6;5.4;4.4
55857;PMS7003;41779;52.360;31.026;2024-02-14T20:34:18;8.4;7.2;5.2
55857;PMS7003;41779;52.360;31.026;2024-02-14T20:39:16;9.6;6.8;5
55857;PMS7003;41779;52.360;31.026;2024-02-14T20:44:10;10;6.2;4.6
55857;PMS7003;41779;52.360;31.026;2024-02-14T20:49:38;9.8;5.6;5
55857;PMS7003;41779;52.360;31.026;2024-02-14T20:54:10;9;6;4.8
55857;PMS7003;41779;52.360;31.026;2024-02-14T20:59:10;9.4;6.6;4.6
55857;PMS7003;41779;52.360;31.026;2024-02-14T21:04:44;8.4;7.2;5.2
55857;PMS7003;41779;52.360;31.026;2024-02-14T21:09:52;7.3;6.8;5
55857;PMS7003;41779;52.360;31.026;2024-02-14T21:14:58;9;7;5.6
55857;PMS7003;41779;52.360;31.026;2024-02-14T21:19:10;8.8;5.8;5.4
55857;PMS7003;41779;52.360;31.026;2024-02-14T21:24:12;7.6;5.4;4.8
55857;PMS7003;41779;52.360;31.026;2024-02-14T21:29:38;10.8;6.8;5.2
55857;PMS7003;41779;52.360;31.026;2024-02-14T21:34:50;9;5.4;5
55857;PMS7003;41779;52.360;31.026;2024-02-14T21:39:38;8.2;7.2;5.4
55857;PMS7003;41779;52.360;31.026;2024-02-14T21:44:32;8.2;5.4;3.4
55857;PMS7003;41779;52.360;31.026;2024-02-14T21:49:30;9;5.2;4.8
55857;PMS7003;41779;52.360;31.026;2024-02-14T21:54:58;10.2;6.2;4.2
55857;PMS7003;41779;52.360;31.026;2024-02-14T21:59:10;8.8;5.2;4
55857;PMS7003;41779;52.360;31.026;2024-02-14T22:04:58;8.3;5.5;5.5
55857;PMS7003;41779;52.360;31.026;2024-02-14T22:09:36;10.6;8.8;7.2
55857;PMS7003;41779;52.360;31.026;2024-02-14T22:14:44;10;7.8;6.4
55857;PMS7003;41779;52.360;31.026;2024-02-14T22:19:58;9;6.8;5.5
55857;PMS7003;41779;52.360;31.026;2024-02-14T22:24:24;11;7.4;6
55857;PMS7003;41779;52.360;31.026;2024-02-14T22:29:18;9.8;6.8;5
55857;PMS7003;41779;52.360;31.026;2024-02-14T22:34:10;9.3;6.3;5
55857;PMS7003;41779;52.360;31.026;2024-02-14T22:39:10;9.2;7.2;4.8
55857;PMS7003;41779;52.360;31.026;2024-02-14T22:44:38;11.4;6.4;5.4
55857;PMS7003;41779;52.360;31.026;2024-02-14T22:49:58;8.4;7;5.4
55857;PMS7003;41779;52.360;31.026;2024-02-14T22:54:44;8.6;5.6;4.8
55857;PMS7003;41779;52.360;31.026;2024-02-14T22:59:58;10;6.6;5
55857;PMS7003;41779;52.360;31.026;2024-02-14T23:04:44;10.6;6.8;5
55857;PMS7003;41779;52.360;31.026;2024-02-14T23:09:50;14;8.6;6
55857;PMS7003;41779;52.360;31.026;2024-02-14T23:14:30;10.8;8.6;5.4
55857;PMS7003;41779;52.360;31.026;2024-02-14T23:19:32;10.2;7.4;6.2
55857;PMS7003;41779;52.360;31.026;2024-02-14T23:24:32;10;8.4;6.2
55857;PMS7003;41779;52.360;31.026;2024-02-14T23:29:58;9;8.4;6.4
55857;PMS7003;41779;52.360;31.026;2024-02-14T23:34:36;9;6.3;4.8
55857;PMS7003;41779;52.360;31.026;2024-02-14T23:39:58;8.4;6.6;4.6
55857;PMS7003;41779;52.360;31.026;2024-02-14T23:44:58;8.8;6.6;4.8
55857;PMS7003;41779;52.360;31.026;2024-02-14T23:49:58;11;7.2;4.8
55857;PMS7003;41779;52.360;31.026;2024-02-14T23:54:58;9.6;6;4.6
55857;PMS7003;41779;52.360;31.026;2024-02-14T23:59:50;12;8.4;4.6
